»·PEaware :: N157M L88-KSBP

N157M :: L88-KSBP

FLIGHT INFORMATION

Flight Status: Arrived
Operator: Privately registered:
United States
More flights under this callsign
Pilot: Marlon M. (28860)
Aircraft: CESSNA 172 SKYHAWK
(C172)
More flights by this aircraft type
Origin: L88 New Cuyama
United States
Destination: KSBP San Luis Co Regl
United States
More flights between these airports :: More routes between these airports
Route: WYNNR
File this flight plan on PilotEdge
Remarks:
Altitude:
(Current/Filed)
6,500ft
Speed:
(Current/Filed)
110kts
Departed: 31-Jul-20 01:22 PM
Arrived: 31-Jul-20 01:54 PM
Distance/Time
Traveled:
50nm/0:32
Distance/Time
To Go:
Arrived

Flight Plot

Page will automatically refresh every two minutes.


Map Options




Map Legend


Flown Route
Filed Route
Departure Airport
Arrival Airport
Navaid (VOR, NDB)
Fix

Horizontal Profiles

Position Reports

Time Latitude Longitude Heading Altitude Ground
Speed
31-Jul-20 13:00 34.942799 -119.690345 239 2156ft 0kts
31-Jul-20 13:01 34.942799 -119.690345 239 2156ft 0kts
31-Jul-20 13:02 34.942787 -119.690381 256 2156ft 0kts
31-Jul-20 13:03 34.942918 -119.691098 201 2154ft 0kts
31-Jul-20 13:04 34.942917 -119.691098 201 2154ft 0kts
31-Jul-20 13:05 34.942917 -119.691098 201 2154ft 0kts
31-Jul-20 13:06 34.942918 -119.691098 201 2154ft 0kts
31-Jul-20 13:07 34.942918 -119.691098 201 2154ft 0kts
31-Jul-20 13:08 34.942918 -119.691098 201 2154ft 0kts
31-Jul-20 13:09 34.942918 -119.691098 201 2154ft 0kts
31-Jul-20 13:10 34.943068 -119.691077 198 2154ft 0kts
31-Jul-20 13:11 34.943068 -119.691077 198 2154ft 0kts
31-Jul-20 13:12 34.943068 -119.691077 198 2154ft 0kts
31-Jul-20 13:13 34.943068 -119.691077 198 2154ft 0kts
31-Jul-20 13:14 34.943068 -119.691077 198 2154ft 0kts
31-Jul-20 13:15 34.943068 -119.691077 198 2154ft 0kts
31-Jul-20 13:16 34.943068 -119.691077 198 2154ft 0kts
31-Jul-20 13:17 34.942827 -119.691179 196 2155ft 0kts
31-Jul-20 13:18 34.942379 -119.691185 143 2155ft 12kts
31-Jul-20 13:19 34.939206 -119.683779 116 2185ft 21kts
31-Jul-20 13:20 34.937702 -119.680080 302 2199ft 0kts
31-Jul-20 13:21 34.940495 -119.686632 297 2283ft 72kts
31-Jul-20 13:22 34.951932 -119.709284 296 3133ft 80kts
31-Jul-20 13:23 34.963421 -119.732717 293 3983ft 81kts
31-Jul-20 13:24 34.975641 -119.756372 304 4789ft 85kts
31-Jul-20 13:26 34.990847 -119.778704 304 5551ft 87kts
31-Jul-20 13:27 35.006429 -119.801498 305 6279ft 88kts
31-Jul-20 13:28 35.023739 -119.827490 298 6584ft 115kts
31-Jul-20 13:29 35.041149 -119.863131 293 6570ft 124kts
31-Jul-20 13:30 35.058183 -119.900449 294 6543ft 125kts
31-Jul-20 13:31 35.074820 -119.937767 293 6527ft 125kts
31-Jul-20 13:32 35.091569 -119.975030 293 6520ft 125kts
31-Jul-20 13:33 35.106068 -120.013232 273 6485ft 123kts
31-Jul-20 13:34 35.108070 -120.053894 269 6527ft 119kts
31-Jul-20 13:35 35.110677 -120.094323 271 6557ft 119kts
31-Jul-20 13:36 35.114854 -120.134550 273 6595ft 119kts
31-Jul-20 13:37 35.119805 -120.174754 274 6612ft 120kts
31-Jul-20 13:38 35.124783 -120.215406 274 6587ft 120kts
31-Jul-20 13:39 35.126037 -120.256016 266 6567ft 118kts
31-Jul-20 13:39 35.125792 -120.289250 265 6606ft 118kts
31-Jul-20 13:41 35.124784 -120.336612 266 6531ft 119kts
31-Jul-20 13:42 35.131299 -120.376740 282 6438ft 121kts
31-Jul-20 13:43 35.140745 -120.415913 283 6387ft 123kts
31-Jul-20 13:43 35.149272 -120.449528 285 6143ft 124kts
31-Jul-20 13:45 35.162152 -120.495159 287 5459ft 116kts
31-Jul-20 13:46 35.143202 -120.514628 156 4712ft 123kts
31-Jul-20 13:46 35.125913 -120.485993 97 4855ft 133kts
31-Jul-20 13:47 35.150303 -120.480933 294 4115ft 137kts
31-Jul-20 13:49 35.169905 -120.523607 303 3234ft 120kts
31-Jul-20 13:49 35.186303 -120.551532 304 2581ft 121kts
31-Jul-20 13:50 35.204515 -120.583738 306 1615ft 109kts
31-Jul-20 13:51 35.219714 -120.610296 307 877ft 82kts
31-Jul-20 13:52 35.230773 -120.629546 307 370ft 55kts
31-Jul-20 13:53 35.237061 -120.639960 354 216ft 8kts
31-Jul-20 13:54 35.237694 -120.639954 334 216ft 5kts
31-Jul-20 13:55 35.238677 -120.639518 333 216ft 3kts
31-Jul-20 13:56 35.238744 -120.639732 221 216ft 0kts
31-Jul-20 13:57 35.238744 -120.639732 221 216ft 0kts
31-Jul-20 13:58 35.238744 -120.639732 221 216ft 0kts
31-Jul-20 13:59 35.238744 -120.639732 221 216ft 0kts
31-Jul-20 14:00 35.238744 -120.639732 221 216ft 0kts
31-Jul-20 14:01 35.238744 -120.639732 221 216ft 0kts
31-Jul-20 14:02 35.238744 -120.639732 221 216ft 0kts
31-Jul-20 14:03 35.238744 -120.639732 221 216ft 0kts

Navigation Log

Ident Type
Flight plan parsing failed, navigation log unavailable